createdAt,value
2023-04-09T16:07:52.528Z,16.51
2023-04-09T16:10:20.742Z,16.49
2023-04-09T16:12:48.826Z,16.14
2023-04-09T16:15:17.143Z,16.43
2023-04-09T16:17:45.217Z,16.45
2023-04-09T16:20:13.597Z,15.99
2023-04-09T16:22:41.614Z,16.15
2023-04-09T16:25:11.608Z,16.16
2023-04-09T16:27:39.682Z,15.84
2023-04-09T16:30:08.974Z,16.07
2023-04-09T16:32:37.002Z,16.07
2023-04-09T16:35:05.382Z,15.80
2023-04-09T16:37:35.105Z,15.74
2023-04-09T16:40:04.688Z,15.71
2023-04-09T16:42:34.723Z,15.62
2023-04-09T16:45:04.499Z,15.70
2023-04-09T16:47:32.798Z,15.41
2023-04-09T16:50:00.942Z,15.42
2023-04-09T16:52:37.453Z,15.47
2023-04-09T16:55:15.957Z,15.46
2023-04-09T16:57:47.347Z,15.47
2023-04-09T17:00:17.499Z,14.24
2023-04-09T17:02:46.435Z,13.86
2023-04-09T17:05:14.658Z,13.63
2023-04-09T17:07:43.402Z,13.60
2023-04-09T17:10:12.212Z,13.45
2023-04-09T17:12:40.242Z,13.39
2023-04-09T17:15:11.610Z,13.35
2023-04-09T17:17:39.807Z,13.21
2023-04-09T17:20:09.141Z,13.12
2023-04-09T17:22:38.190Z,13.08
2023-04-09T17:25:06.861Z,13.14
2023-04-09T17:27:34.944Z,12.92
2023-04-09T17:30:04.352Z,12.98
2023-04-09T17:32:33.887Z,12.97
2023-04-09T17:35:03.686Z,13.06
2023-04-09T17:37:32.413Z,13.02
2023-04-09T17:40:00.478Z,13.01
2023-04-09T17:42:29.535Z,12.98
2023-04-09T17:44:57.820Z,12.91
2023-04-09T17:47:26.057Z,12.85
2023-04-09T17:49:55.473Z,12.73
2023-04-09T17:52:23.571Z,12.64
2023-04-09T17:54:52.284Z,12.61
2023-04-09T17:57:20.356Z,12.62
2023-04-09T17:59:48.992Z,12.55
2023-04-09T18:02:17.431Z,12.50
2023-04-09T18:04:45.872Z,12.53
2023-04-09T18:07:15.524Z,12.43
2023-04-09T18:09:43.638Z,12.31
2023-04-09T18:12:11.851Z,12.18
2023-04-09T18:14:39.917Z,12.16
2023-04-09T18:17:08.453Z,12.20
2023-04-09T18:19:36.442Z,11.95
2023-04-09T18:22:04.577Z,11.64
2023-04-09T18:24:34.518Z,11.32
2023-04-09T18:27:03.459Z,11.32
2023-04-09T18:29:32.512Z,11.35
2023-04-09T18:32:00.989Z,11.31
2023-04-09T18:34:29.160Z,11.12
2023-04-09T18:36:57.131Z,11.26
2023-04-09T18:39:25.953Z,11.24
2023-04-09T18:41:55.410Z,11.39
2023-04-09T18:44:23.406Z,11.51
2023-04-09T18:46:52.277Z,11.35
2023-04-09T18:49:20.533Z,11.56
2023-04-09T18:51:48.516Z,11.51
2023-04-09T18:54:16.717Z,11.51
2023-04-09T18:56:46.548Z,11.61
2023-04-09T18:59:16.430Z,11.66
2023-04-09T19:01:44.626Z,11.61
2023-04-09T19:04:12.799Z,11.49
2023-04-09T19:06:41.086Z,11.13
2023-04-09T19:09:10.038Z,10.82
2023-04-09T19:11:38.022Z,10.86
2023-04-09T19:14:06.092Z,10.84
2023-04-09T19:16:35.624Z,10.76
2023-04-09T19:19:03.769Z,10.71
2023-04-09T19:21:31.896Z,10.44
2023-04-09T19:24:00.486Z,10.45
2023-04-09T19:26:28.471Z,10.43
2023-04-09T19:28:56.625Z,10.47
2023-04-09T19:31:24.755Z,10.53
2023-04-09T19:33:54.156Z,10.46
2023-04-09T19:36:22.661Z,10.44
2023-04-09T19:38:52.226Z,10.73
2023-04-09T19:41:20.525Z,10.68
2023-04-09T19:43:48.528Z,10.48
2023-04-09T19:46:16.556Z,10.66
2023-04-09T19:48:44.892Z,10.45
2023-04-09T19:51:18.680Z,10.39
2023-04-09T19:53:47.437Z,10.31
2023-04-09T19:56:15.735Z,10.67
2023-04-09T19:58:44.916Z,10.82
2023-04-09T20:01:13.206Z,10.73
2023-04-09T20:03:41.618Z,10.63
2023-04-09T20:06:11.087Z,10.80
2023-04-09T20:08:41.041Z,10.68
2023-04-09T20:11:09.256Z,10.87
2023-04-09T20:13:37.247Z,10.91
2023-04-09T20:16:05.799Z,10.97
2023-04-09T20:18:33.828Z,11.00
2023-04-09T20:21:01.929Z,10.97
2023-04-09T20:23:30.279Z,10.82
2023-04-09T20:25:59.808Z,10.79
2023-04-09T20:28:27.860Z,10.78
2023-04-09T20:30:55.857Z,10.90
2023-04-09T20:33:23.873Z,10.77
2023-04-09T20:35:53.204Z,10.57
2023-04-09T20:38:22.413Z,10.69
2023-04-09T20:40:52.425Z,9.96
2023-04-09T20:43:21.794Z,9.91
2023-04-09T20:45:49.922Z,9.17
2023-04-09T20:48:18.997Z,9.03
2023-04-09T20:50:47.037Z,9.02
2023-04-09T20:53:15.337Z,9.13
2023-04-09T20:55:43.413Z,9.34
2023-04-09T20:58:11.684Z,9.32
2023-04-09T21:00:41.100Z,9.67
2023-04-09T21:03:09.809Z,9.93
2023-04-09T21:05:37.959Z,10.17
2023-04-09T21:08:07.156Z,10.09
2023-04-09T21:10:35.402Z,10.05
2023-04-09T21:13:03.468Z,10.03
2023-04-09T21:15:31.601Z,10.04
2023-04-09T21:18:00.992Z,10.08
2023-04-09T21:20:29.105Z,10.08
2023-04-09T21:22:57.186Z,9.93
2023-04-09T21:25:28.390Z,9.90
2023-04-09T21:27:56.666Z,9.96
2023-04-09T21:30:24.807Z,9.84
2023-04-09T21:32:54.563Z,9.88
2023-04-09T21:35:24.132Z,9.73
2023-04-09T21:37:52.616Z,9.77
2023-04-09T21:40:20.727Z,9.77
2023-04-09T21:42:48.777Z,9.79
2023-04-09T21:45:17.615Z,9.56
2023-04-09T21:47:46.059Z,9.45
2023-04-09T21:50:14.744Z,9.35
2023-04-09T21:52:46.158Z,9.48
2023-04-09T21:55:14.244Z,9.65
2023-04-09T21:57:42.255Z,9.27
2023-04-09T22:00:11.377Z,9.36
2023-04-09T22:02:40.276Z,9.15
2023-04-09T22:05:09.121Z,9.39
2023-04-09T22:07:37.385Z,9.53
2023-04-09T22:10:08.256Z,9.64
2023-04-09T22:12:37.430Z,9.52
2023-04-09T22:15:06.584Z,9.30
2023-04-09T22:17:34.732Z,9.31
2023-04-09T22:20:03.212Z,9.43
2023-04-09T22:22:31.288Z,9.46
2023-04-09T22:24:59.359Z,9.33
2023-04-09T22:27:29.081Z,9.52
2023-04-09T22:29:57.253Z,9.39
2023-04-09T22:32:25.444Z,9.64
2023-04-09T22:34:53.640Z,9.42
2023-04-09T22:37:21.749Z,9.41
2023-04-09T22:39:49.772Z,8.98
2023-04-09T22:42:17.801Z,9.10
2023-04-09T22:44:47.132Z,8.92
2023-04-09T22:47:15.252Z,8.90
2023-04-09T22:49:43.842Z,8.99
2023-04-09T22:52:12.193Z,8.62
2023-04-09T22:54:43.207Z,8.88
2023-04-09T22:57:11.364Z,8.73
2023-04-09T22:59:40.884Z,8.58
2023-04-09T23:02:10.559Z,8.87
2023-04-09T23:04:38.754Z,8.92
2023-04-09T23:07:06.842Z,8.86
2023-04-09T23:09:34.846Z,8.77
2023-04-09T23:12:03.349Z,8.38
2023-04-09T23:14:31.487Z,8.30
2023-04-09T23:16:59.583Z,8.05
2023-04-09T23:19:28.948Z,8.05
2023-04-09T23:21:56.974Z,7.72
2023-04-09T23:24:25.097Z,8.15
2023-04-09T23:26:53.166Z,8.17
2023-04-09T23:29:21.348Z,8.05
2023-04-09T23:31:49.572Z,8.24
2023-04-09T23:34:17.849Z,8.51
2023-04-09T23:36:47.256Z,8.37
2023-04-09T23:39:15.336Z,8.21
2023-04-09T23:41:43.461Z,8.44
2023-04-09T23:44:11.445Z,8.43
2023-04-09T23:46:39.482Z,8.64
2023-04-09T23:49:07.597Z,8.58
2023-04-09T23:51:35.705Z,8.70
2023-04-09T23:54:05.230Z,8.67
2023-04-09T23:56:33.320Z,8.47
2023-04-09T23:59:01.326Z,8.38
